createdAt,value
2022-10-17T00:02:19.110Z,11.88
2022-10-17T00:04:46.870Z,12.85
2022-10-17T00:07:14.609Z,14.98
2022-10-17T00:09:43.796Z,11.52
2022-10-17T00:12:11.675Z,9.57
2022-10-17T00:14:39.508Z,12.13
2022-10-17T00:17:08.631Z,12.50
2022-10-17T00:19:36.367Z,11.43
2022-10-17T00:22:04.070Z,11.68
2022-10-17T00:24:32.001Z,13.10
2022-10-17T00:26:59.709Z,10.65
2022-10-17T00:29:27.613Z,11.68
2022-10-17T00:31:56.832Z,10.75
2022-10-17T00:34:26.442Z,10.43
2022-10-17T00:36:54.145Z,16.83
2022-10-17T00:39:21.889Z,13.07
2022-10-17T00:41:49.643Z,13.65
2022-10-17T00:44:53.660Z,12.05
2022-10-17T00:47:23.975Z,12.45
2022-10-17T00:49:53.549Z,10.20
2022-10-17T00:52:24.263Z,13.95
2022-10-17T00:54:57.280Z,13.02
2022-10-17T00:57:25.781Z,10.80
2022-10-17T00:59:57.298Z,10.82
2022-10-17T01:02:25.534Z,16.15
2022-10-17T01:04:59.362Z,12.70
2022-10-17T01:07:31.907Z,11.80
2022-10-17T01:10:03.087Z,13.15
2022-10-17T01:12:42.250Z,14.75
2022-10-17T01:15:14.791Z,13.13
2022-10-17T01:17:53.155Z,11.68
2022-10-17T01:20:52.409Z,10.70
2022-10-17T01:23:38.263Z,12.50
2022-10-17T01:26:16.992Z,11.70
2022-10-17T01:29:20.398Z,12.20
2022-10-17T01:31:56.758Z,13.75
2022-10-17T01:34:33.140Z,14.20
2022-10-17T01:37:05.192Z,12.15
2022-10-17T01:39:45.445Z,14.30
2022-10-17T01:42:19.584Z,12.82
2022-10-17T01:44:52.697Z,12.85
2022-10-17T01:47:25.486Z,11.48
2022-10-17T01:49:57.824Z,14.15
2022-10-17T01:52:28.623Z,10.98
2022-10-17T01:54:59.736Z,12.68
2022-10-17T01:57:32.455Z,11.27
2022-10-17T02:00:02.177Z,11.73
2022-10-17T02:02:32.804Z,14.65
2022-10-17T02:05:03.582Z,12.32
2022-10-17T02:07:31.470Z,13.73
2022-10-17T02:10:00.521Z,11.82
2022-10-17T02:12:41.346Z,13.18
2022-10-17T02:15:34.780Z,14.10
2022-10-17T02:18:16.870Z,12.35
2022-10-17T02:20:52.755Z,13.57
2022-10-17T02:23:26.538Z,13.60
2022-10-17T02:26:03.466Z,16.38
2022-10-17T02:28:38.215Z,13.15
2022-10-17T02:31:11.300Z,14.15
2022-10-17T02:33:45.589Z,14.38
2022-10-17T02:36:17.961Z,13.48
2022-10-17T02:38:47.326Z,14.18
2022-10-17T02:41:19.364Z,13.73
2022-10-17T02:43:49.978Z,14.48
2022-10-17T02:46:21.713Z,14.23
2022-10-17T02:48:54.568Z,16.77
2022-10-17T02:51:30.418Z,15.40
2022-10-17T02:54:06.278Z,14.80
2022-10-17T02:56:41.182Z,14.20
2022-10-17T02:59:13.425Z,14.45
2022-10-17T03:01:41.674Z,15.93
2022-10-17T03:04:13.224Z,15.38
2022-10-17T03:06:43.455Z,16.25
2022-10-17T03:09:11.290Z,14.07
2022-10-17T03:11:39.073Z,15.63
2022-10-17T03:14:08.479Z,16.38
2022-10-17T03:16:36.181Z,15.60
2022-10-17T03:19:05.049Z,16.58
2022-10-17T03:21:36.442Z,14.43
2022-10-17T03:24:04.240Z,16.13
2022-10-17T03:26:32.519Z,14.45
2022-10-17T03:29:00.369Z,14.38
2022-10-17T03:31:30.221Z,13.80
2022-10-17T03:33:58.778Z,13.75
2022-10-17T03:36:26.522Z,15.98
2022-10-17T03:38:56.768Z,15.68
2022-10-17T03:41:24.689Z,15.32
2022-10-17T03:43:53.712Z,13.65
2022-10-17T03:46:22.046Z,12.95
2022-10-17T03:48:50.098Z,14.20
2022-10-17T03:51:17.842Z,13.90
2022-10-17T03:53:50.805Z,13.23
2022-10-17T03:56:21.313Z,14.93
2022-10-17T03:58:57.416Z,14.32
2022-10-17T04:01:25.487Z,14.90
2022-10-17T04:03:54.692Z,13.77
2022-10-17T04:06:23.298Z,12.60
2022-10-17T04:08:51.447Z,15.68
2022-10-17T04:11:36.121Z,15.70
2022-10-17T04:14:04.932Z,15.32
2022-10-17T04:16:33.138Z,14.90
2022-10-17T04:19:04.391Z,13.43
2022-10-17T04:21:37.899Z,14.95
2022-10-17T04:24:08.212Z,14.52
2022-10-17T04:26:46.556Z,13.85
2022-10-17T04:29:15.551Z,15.07
2022-10-17T04:31:45.334Z,13.63
2022-10-17T04:34:20.528Z,13.60
2022-10-17T04:36:48.719Z,13.90
2022-10-17T04:39:16.599Z,16.10
2022-10-17T04:41:46.385Z,15.45
2022-10-17T04:44:14.601Z,15.23
2022-10-17T04:46:47.930Z,13.30
2022-10-17T04:49:15.660Z,14.02
2022-10-17T04:51:45.373Z,12.38
2022-10-17T04:54:19.275Z,15.10
2022-10-17T04:56:52.255Z,15.23
2022-10-17T04:59:20.228Z,12.80
2022-10-17T05:01:53.348Z,13.68
2022-10-17T05:04:24.032Z,16.02
2022-10-17T05:06:53.585Z,13.95
2022-10-17T05:09:39.665Z,13.20
2022-10-17T05:12:10.398Z,15.70
2022-10-17T05:14:41.281Z,13.70
2022-10-17T05:17:09.080Z,14.57
2022-10-17T05:19:36.877Z,13.73
2022-10-17T05:22:05.120Z,15.80
2022-10-17T05:24:32.876Z,13.35
2022-10-17T05:27:00.653Z,16.10
2022-10-17T05:29:29.817Z,14.85
2022-10-17T05:32:06.029Z,14.25
2022-10-17T05:34:35.621Z,14.63
2022-10-17T05:37:03.380Z,16.67
2022-10-17T05:39:32.271Z,15.20
2022-10-17T05:42:00.932Z,14.55
2022-10-17T05:44:30.446Z,12.50
2022-10-17T05:47:00.932Z,13.88
2022-10-17T05:49:43.557Z,14.27
2022-10-17T05:52:11.898Z,13.82
2022-10-17T05:54:54.086Z,21.58
2022-10-17T05:57:25.347Z,13.32
2022-10-17T05:59:54.685Z,13.27
2022-10-17T06:02:22.769Z,13.57
2022-10-17T06:04:51.031Z,12.20
2022-10-17T06:07:21.284Z,14.82
2022-10-17T06:09:49.901Z,13.18
2022-10-17T06:12:17.796Z,14.32
2022-10-17T06:14:46.253Z,15.98
2022-10-17T06:17:16.622Z,13.52
2022-10-17T06:19:45.462Z,13.82
2022-10-17T06:22:15.730Z,13.45
2022-10-17T06:24:43.940Z,14.15
2022-10-17T06:27:13.145Z,11.35
2022-10-17T06:29:42.152Z,11.30
2022-10-17T06:32:12.749Z,12.52
2022-10-17T06:34:45.030Z,11.60
2022-10-17T06:37:12.852Z,11.95
2022-10-17T06:39:42.228Z,15.63
2022-10-17T06:42:15.960Z,12.05
2022-10-17T06:45:07.572Z,13.88
2022-10-17T06:47:55.615Z,11.93
2022-10-17T06:50:44.277Z,13.25
2022-10-17T06:53:16.315Z,13.77
2022-10-17T06:55:53.274Z,12.68
2022-10-17T06:58:43.912Z,13.70
2022-10-17T07:01:24.350Z,10.98
2022-10-17T07:03:56.181Z,16.33
2022-10-17T07:06:25.680Z,12.93
2022-10-17T07:08:56.450Z,14.60
2022-10-17T07:11:25.847Z,11.40
2022-10-17T07:13:54.192Z,12.88
2022-10-17T07:16:23.397Z,12.18
2022-10-17T07:19:03.016Z,13.10
2022-10-17T07:21:39.151Z,14.32
2022-10-17T07:24:08.593Z,13.68
2022-10-17T07:26:36.324Z,13.35
2022-10-17T07:29:06.356Z,12.52
2022-10-17T07:31:48.932Z,11.77
2022-10-17T07:34:16.820Z,18.50
2022-10-17T07:36:47.178Z,13.93
2022-10-17T07:39:16.445Z,12.48
2022-10-17T07:41:44.201Z,15.60
2022-10-17T07:44:12.565Z,13.68
2022-10-17T07:46:45.317Z,13.55
2022-10-17T07:49:13.099Z,12.82
2022-10-17T07:51:42.209Z,14.27
2022-10-17T07:54:11.481Z,13.10
2022-10-17T07:56:39.258Z,14.00
2022-10-17T07:59:09.327Z,15.27
2022-10-17T08:01:37.898Z,12.27
2022-10-17T08:04:05.941Z,14.82
2022-10-17T08:06:33.741Z,16.80
2022-10-17T08:09:02.055Z,13.65
2022-10-17T08:11:31.140Z,13.32
2022-10-17T08:13:58.876Z,12.13
2022-10-17T08:16:26.607Z,12.45
2022-10-17T08:18:54.316Z,11.98
2022-10-17T08:21:22.234Z,13.63
2022-10-17T08:23:50.011Z,13.00
2022-10-17T08:26:19.943Z,12.55
2022-10-17T08:28:49.544Z,13.57
2022-10-17T08:31:20.102Z,11.50
2022-10-17T08:33:48.820Z,13.90
2022-10-17T08:36:19.938Z,13.15
2022-10-17T08:38:52.417Z,14.23
2022-10-17T08:41:34.953Z,11.32
2022-10-17T08:44:15.905Z,11.32
2022-10-17T08:46:47.360Z,13.32
2022-10-17T08:49:20.698Z,18.90
2022-10-17T08:52:07.648Z,13.15
2022-10-17T08:54:42.886Z,13.00
2022-10-17T08:57:13.518Z,16.30
2022-10-17T08:59:43.957Z,13.50
2022-10-17T09:02:29.553Z,16.35
2022-10-17T09:05:24.027Z,14.13
2022-10-17T09:08:04.173Z,16.40
2022-10-17T09:10:43.866Z,12.98
2022-10-17T09:13:23.799Z,13.27
2022-10-17T09:16:09.028Z,13.32
2022-10-17T09:18:40.850Z,13.18
2022-10-17T09:21:20.498Z,15.18
2022-10-17T09:23:59.431Z,13.57
2022-10-17T09:29:16.106Z,12.23
2022-10-17T09:31:48.332Z,13.05
2022-10-17T09:34:17.369Z,11.80
2022-10-17T09:36:45.167Z,13.80
2022-10-17T09:39:15.730Z,12.18
2022-10-17T09:41:47.374Z,13.65
2022-10-17T09:44:19.506Z,13.50
2022-10-17T09:47:27.398Z,13.40
2022-10-17T09:49:55.272Z,12.77
2022-10-17T09:52:31.028Z,14.80
2022-10-17T09:55:03.088Z,15.15
2022-10-17T09:57:55.321Z,13.88
2022-10-17T10:00:25.095Z,11.05
2022-10-17T10:03:10.216Z,14.80
2022-10-17T10:05:37.948Z,13.57
2022-10-17T10:08:07.662Z,13.63
2022-10-17T10:10:35.459Z,12.27
2022-10-17T10:13:06.480Z,12.50
2022-10-17T10:15:38.637Z,12.13
2022-10-17T10:21:09.202Z,13.05
2022-10-17T10:23:40.089Z,13.98
2022-10-17T10:26:22.626Z,13.48
2022-10-17T10:29:01.283Z,12.70
2022-10-17T10:31:32.410Z,12.30
2022-10-17T10:34:04.069Z,11.80
2022-10-17T10:36:45.662Z,12.90
2022-10-17T10:39:37.242Z,12.10
2022-10-17T10:42:08.667Z,13.52
2022-10-17T10:44:39.599Z,12.93
2022-10-17T10:47:21.572Z,11.23
2022-10-17T10:49:53.592Z,11.48
2022-10-17T10:52:30.792Z,11.73
2022-10-17T10:55:11.132Z,10.10
2022-10-17T10:57:41.033Z,10.63
2022-10-17T11:00:16.520Z,10.95
2022-10-17T11:02:53.793Z,12.48
2022-10-17T11:05:31.518Z,12.70
2022-10-17T11:08:10.435Z,10.07
2022-10-17T11:10:44.443Z,9.60
2022-10-17T11:13:16.828Z,10.60
2022-10-17T11:15:48.428Z,10.18
2022-10-17T11:18:25.327Z,10.32
2022-10-17T11:23:33.810Z,9.00
2022-10-17T11:26:09.479Z,9.85
2022-10-17T11:28:37.417Z,9.95
2022-10-17T11:31:08.761Z,9.93
2022-10-17T11:33:46.952Z,9.38
2022-10-17T11:36:18.917Z,11.55
2022-10-17T11:38:50.954Z,10.82
2022-10-17T11:41:23.986Z,8.80
2022-10-17T11:43:55.637Z,10.43
2022-10-17T11:46:25.277Z,10.68
2022-10-17T11:49:06.759Z,11.55
2022-10-17T11:52:02.847Z,11.38
2022-10-17T11:54:36.570Z,9.13
2022-10-17T11:57:17.495Z,10.15
2022-10-17T12:00:08.749Z,10.73
2022-10-17T12:02:47.040Z,12.02
2022-10-17T12:05:26.106Z,9.30
2022-10-17T12:08:00.644Z,10.38
2022-10-17T12:10:38.442Z,9.45
2022-10-17T12:13:42.776Z,11.38
2022-10-17T12:16:50.835Z,10.55
2022-10-17T12:19:28.691Z,10.73
2022-10-17T12:21:59.069Z,10.10
2022-10-17T12:24:38.681Z,10.25
2022-10-17T12:27:41.509Z,9.82
2022-10-17T12:30:22.097Z,9.80
2022-10-17T12:33:07.367Z,9.55
2022-10-17T12:35:37.571Z,9.82
2022-10-17T12:38:29.232Z,9.85
2022-10-17T12:41:03.288Z,9.82
2022-10-17T12:43:53.127Z,9.95
2022-10-17T12:46:50.940Z,9.68
2022-10-17T12:49:24.100Z,10.95
2022-10-17T12:52:29.562Z,9.35
2022-10-17T12:55:15.045Z,10.57
2022-10-17T12:57:51.359Z,11.32
2022-10-17T13:00:24.894Z,11.55
2022-10-17T13:02:56.065Z,10.75
2022-10-17T13:05:29.658Z,10.85
2022-10-17T13:08:00.433Z,10.40
2022-10-17T13:10:30.925Z,10.55
2022-10-17T13:13:09.478Z,11.57
2022-10-17T13:15:38.251Z,10.68
2022-10-17T13:18:06.618Z,10.30
2022-10-17T13:20:34.461Z,10.30
2022-10-17T13:23:02.492Z,10.32
2022-10-17T13:25:30.386Z,13.10
2022-10-17T13:28:11.942Z,12.07
2022-10-17T13:30:39.740Z,10.98
2022-10-17T13:33:28.832Z,11.35
2022-10-17T13:36:00.428Z,9.93
2022-10-17T13:38:32.357Z,10.88
2022-10-17T13:41:30.002Z,10.35
2022-10-17T13:43:51.403Z,10.52
2022-10-17T13:46:37.374Z,11.05
2022-10-17T13:49:13.752Z,10.43
2022-10-17T13:51:45.567Z,11.05
2022-10-17T13:54:36.411Z,9.77
2022-10-17T13:57:06.114Z,12.68
2022-10-17T13:59:39.550Z,11.07
2022-10-17T14:02:14.481Z,10.13
2022-10-17T14:05:11.781Z,10.90
2022-10-17T14:07:58.293Z,9.82
2022-10-17T14:10:26.266Z,9.43
2022-10-17T14:12:55.617Z,11.18
2022-10-17T14:15:28.130Z,9.43
2022-10-17T14:17:58.419Z,9.48
2022-10-17T14:23:36.159Z,10.98
2022-10-17T14:26:10.356Z,10.68
2022-10-17T14:28:38.564Z,9.60
2022-10-17T14:31:21.916Z,10.70
2022-10-17T14:33:51.815Z,10.27
2022-10-17T14:36:20.435Z,8.77
2022-10-17T14:38:50.991Z,10.48
2022-10-17T14:44:21.808Z,11.57
2022-10-17T14:46:55.110Z,10.65
2022-10-17T14:49:28.740Z,9.77
2022-10-17T14:52:17.725Z,10.40
2022-10-17T14:54:47.898Z,9.48
2022-10-17T14:57:18.591Z,11.55
2022-10-17T14:59:55.395Z,9.88
2022-10-17T15:02:25.804Z,9.20
2022-10-17T15:04:54.040Z,11.48
2022-10-17T15:07:23.516Z,11.80
2022-10-17T15:09:52.919Z,10.52
2022-10-17T15:12:24.672Z,10.93
2022-10-17T15:14:53.050Z,10.35
2022-10-17T15:17:29.679Z,9.43
2022-10-17T15:19:58.889Z,10.10
2022-10-17T15:22:26.780Z,11.75
2022-10-17T15:24:54.561Z,9.50
2022-10-17T15:27:24.095Z,9.32
2022-10-17T15:29:52.983Z,11.02
2022-10-17T15:32:20.916Z,11.15
2022-10-17T15:34:49.997Z,9.15
2022-10-17T15:37:21.992Z,11.05
2022-10-17T15:39:53.469Z,10.55
2022-10-17T15:42:23.150Z,10.60
2022-10-17T15:44:50.918Z,10.13
2022-10-17T15:47:25.336Z,10.68
2022-10-17T15:49:55.040Z,12.18
2022-10-17T15:52:23.201Z,9.82
2022-10-17T15:54:51.056Z,13.23
2022-10-17T15:57:21.762Z,9.85
2022-10-17T15:59:52.101Z,9.60
2022-10-17T16:02:21.792Z,14.57
2022-10-17T16:04:51.183Z,12.07
2022-10-17T16:07:21.308Z,11.85
2022-10-17T16:09:49.092Z,10.77
2022-10-17T16:12:19.714Z,11.07
2022-10-17T16:14:47.546Z,11.00
2022-10-17T16:17:16.301Z,10.00
2022-10-17T16:19:44.772Z,10.52
2022-10-17T16:22:26.052Z,11.32
2022-10-17T16:24:58.537Z,11.10
2022-10-17T16:27:26.480Z,10.90
2022-10-17T16:29:54.281Z,11.57
2022-10-17T16:32:22.016Z,11.93
2022-10-17T16:34:49.794Z,13.35
2022-10-17T16:37:17.952Z,13.25
2022-10-17T16:39:49.185Z,14.80
2022-10-17T16:42:17.051Z,12.10
2022-10-17T16:44:44.957Z,13.48
2022-10-17T16:47:12.689Z,13.02
2022-10-17T16:49:43.025Z,12.60
2022-10-17T16:52:13.552Z,11.18
2022-10-17T16:54:41.452Z,10.38
2022-10-17T16:57:10.592Z,13.55
2022-10-17T16:59:38.376Z,11.95
2022-10-17T17:02:06.522Z,11.27
2022-10-17T17:04:34.494Z,14.55
2022-10-17T17:07:02.292Z,10.68
2022-10-17T17:09:30.176Z,12.82
2022-10-17T17:11:57.942Z,11.73
2022-10-17T17:14:27.474Z,11.40
2022-10-17T17:16:55.204Z,10.13
2022-10-17T17:19:22.913Z,11.60
2022-10-17T17:21:51.135Z,14.18
2022-10-17T17:24:20.998Z,11.05
2022-10-17T17:26:52.210Z,11.82
2022-10-17T17:29:20.498Z,10.65
2022-10-17T17:31:49.692Z,13.02
2022-10-17T17:34:18.370Z,13.13
2022-10-17T17:36:46.476Z,11.15
2022-10-17T17:39:16.383Z,12.18
2022-10-17T17:41:45.585Z,11.65
2022-10-17T17:44:16.720Z,11.57
2022-10-17T17:46:45.324Z,12.02
2022-10-17T17:49:14.847Z,12.60
2022-10-17T17:51:46.181Z,11.95
2022-10-17T17:54:14.153Z,12.93
2022-10-17T17:56:41.999Z,13.40
2022-10-17T17:59:13.336Z,13.88
2022-10-17T18:01:41.156Z,12.10
2022-10-17T18:04:10.092Z,13.63
2022-10-17T18:06:40.296Z,14.48
2022-10-17T18:09:09.173Z,13.10
2022-10-17T18:11:37.765Z,16.13
2022-10-17T18:14:07.432Z,12.60
2022-10-17T18:16:37.528Z,13.02
2022-10-17T18:19:07.261Z,12.65
2022-10-17T18:21:35.627Z,13.82
2022-10-17T18:24:05.683Z,14.05
2022-10-17T18:26:34.463Z,13.80
2022-10-17T18:29:02.373Z,14.90
2022-10-17T18:31:35.342Z,15.77
2022-10-17T18:34:04.018Z,13.48
2022-10-17T18:36:33.146Z,14.20
2022-10-17T18:39:02.380Z,13.02
2022-10-17T18:41:32.716Z,15.63
2022-10-17T18:44:00.498Z,18.20
2022-10-17T18:46:30.355Z,18.48
2022-10-17T18:48:58.751Z,15.43
2022-10-17T18:51:27.469Z,17.27
2022-10-17T18:53:56.526Z,15.40
2022-10-17T18:56:24.498Z,16.67
2022-10-17T18:58:53.575Z,19.13
2022-10-17T19:01:23.593Z,17.65
2022-10-17T19:03:53.053Z,17.70
2022-10-17T19:06:23.401Z,16.55
2022-10-17T19:08:51.482Z,17.02
2022-10-17T19:11:21.694Z,17.33
2022-10-17T19:13:50.090Z,15.60
2022-10-17T19:16:21.257Z,15.93
2022-10-17T19:18:50.726Z,16.10
2022-10-17T19:21:21.878Z,17.00
2022-10-17T19:23:52.355Z,16.95
2022-10-17T19:26:21.284Z,15.23
2022-10-17T19:28:52.218Z,15.98
2022-10-17T19:31:26.424Z,16.85
2022-10-17T19:33:54.893Z,18.48
2022-10-17T19:36:27.522Z,18.02
2022-10-17T19:39:04.654Z,19.77
2022-10-17T19:41:33.308Z,16.40
2022-10-17T19:44:01.634Z,15.85
2022-10-17T19:46:33.803Z,18.25
2022-10-17T19:49:02.217Z,17.90
2022-10-17T19:51:30.444Z,23.67
2022-10-17T19:54:00.265Z,20.30
2022-10-17T19:56:31.204Z,20.63
2022-10-17T19:58:59.710Z,20.38
2022-10-17T20:01:30.776Z,21.27
2022-10-17T20:03:58.597Z,24.02
2022-10-17T20:06:26.990Z,23.38
2022-10-17T20:08:54.860Z,21.52
2022-10-17T20:11:27.186Z,23.48
2022-10-17T20:13:56.664Z,24.58
2022-10-17T20:16:26.448Z,22.77
2022-10-17T20:18:57.820Z,22.33
2022-10-17T20:21:28.212Z,23.20
2022-10-17T20:23:56.333Z,22.80
2022-10-17T20:26:37.128Z,20.63
2022-10-17T20:29:10.827Z,21.88
2022-10-17T20:31:38.969Z,24.25
2022-10-17T20:34:08.051Z,21.10
2022-10-17T20:36:37.438Z,22.60
2022-10-17T20:39:07.218Z,24.88
2022-10-17T20:41:35.294Z,24.75
2022-10-17T20:44:03.277Z,23.80
2022-10-17T20:46:44.356Z,22.08
2022-10-17T20:49:15.862Z,22.83
2022-10-17T20:51:43.829Z,20.95
2022-10-17T20:54:12.662Z,21.92
2022-10-17T20:56:40.618Z,26.35
2022-10-17T20:59:13.525Z,22.48
2022-10-17T21:01:41.618Z,22.30
2022-10-17T21:04:44.028Z,23.00
2022-10-17T21:06:59.277Z,21.85
2022-10-17T21:09:27.032Z,22.08
2022-10-17T21:11:55.976Z,21.38
2022-10-17T21:14:25.055Z,21.40
2022-10-17T21:16:53.468Z,23.80
2022-10-17T21:19:22.568Z,23.23
2022-10-17T21:21:50.702Z,20.80
2022-10-17T21:24:20.812Z,21.98
2022-10-17T21:26:55.254Z,23.02
2022-10-17T21:29:24.010Z,21.00
2022-10-17T21:31:52.354Z,20.50
2022-10-17T21:34:22.097Z,21.20
2022-10-17T21:36:50.182Z,22.90
2022-10-17T21:39:19.290Z,21.15
2022-10-17T21:41:47.049Z,25.83
2022-10-17T21:44:16.395Z,21.98
2022-10-17T21:46:44.711Z,41.05
2022-10-17T21:49:13.849Z,21.20
2022-10-17T21:51:42.084Z,19.15
2022-10-17T21:54:09.927Z,116.25
2022-10-17T21:56:39.045Z,118.05
2022-10-17T21:59:07.144Z,68.32
2022-10-17T22:01:37.036Z,20.35
2022-10-17T22:04:06.775Z,18.52
2022-10-17T22:06:40.852Z,18.48
2022-10-17T22:09:12.329Z,17.83
2022-10-17T22:11:42.122Z,18.80
2022-10-17T22:14:13.235Z,29.42
2022-10-17T22:16:42.056Z,17.30
2022-10-17T22:19:11.557Z,12.65
2022-10-17T22:21:39.630Z,13.48
2022-10-17T22:24:09.680Z,12.20
2022-10-17T22:26:38.589Z,16.73
2022-10-17T22:29:09.153Z,22.20
2022-10-17T22:31:37.806Z,37.53
2022-10-17T22:34:06.207Z,59.05
2022-10-17T22:36:34.552Z,56.72
2022-10-17T22:39:02.452Z,45.13
2022-10-17T22:41:30.327Z,20.52
2022-10-17T22:43:58.056Z,15.32
2022-10-17T22:46:27.228Z,27.80
2022-10-17T22:48:54.969Z,13.18
2022-10-17T22:53:55.940Z,14.73
2022-10-17T22:56:24.036Z,13.40
2022-10-17T22:58:52.292Z,14.23
2022-10-17T23:01:21.717Z,14.77
2022-10-17T23:03:51.389Z,14.55
2022-10-17T23:06:19.531Z,12.63
2022-10-17T23:08:47.357Z,13.77
2022-10-17T23:11:15.094Z,14.32
2022-10-17T23:13:42.833Z,14.38
2022-10-17T23:16:10.878Z,12.80
2022-10-17T23:18:39.346Z,13.38
2022-10-17T23:21:09.071Z,19.02
2022-10-17T23:23:37.337Z,76.35
2022-10-17T23:26:06.458Z,66.68
2022-10-17T23:28:35.572Z,13.85
2022-10-17T23:31:11.093Z,28.50
2022-10-17T23:33:41.167Z,43.90
2022-10-17T23:36:11.325Z,22.17
2022-10-17T23:38:39.206Z,41.85
2022-10-17T23:41:07.513Z,42.95
2022-10-17T23:43:35.760Z,27.75
2022-10-17T23:46:03.934Z,26.55
2022-10-17T23:48:32.120Z,10.77
2022-10-17T23:50:59.877Z,18.40
2022-10-17T23:53:28.951Z,20.40
2022-10-17T23:55:56.700Z,33.35
2022-10-17T23:58:24.553Z,39.78
